createdAt,value
2019-02-04T00:00:45.592Z,0.20
2019-02-04T00:03:34.056Z,0.20
2019-02-04T00:06:22.415Z,0.20
2019-02-04T00:09:10.428Z,0.50
2019-02-04T00:11:58.244Z,0.60
2019-02-04T00:14:46.284Z,0.80
2019-02-04T00:17:34.951Z,0.90
2019-02-04T00:20:23.503Z,1.00
2019-02-04T00:23:12.117Z,1.00
2019-02-04T00:25:59.944Z,1.10
2019-02-04T00:28:48.000Z,1.10
2019-02-04T00:31:36.428Z,1.10
2019-02-04T00:34:24.035Z,1.10
2019-02-04T00:37:12.588Z,1.10
2019-02-04T00:40:01.277Z,1.10
2019-02-04T00:42:49.595Z,1.10
2019-02-04T00:45:37.780Z,1.20
2019-02-04T00:48:26.291Z,1.20
2019-02-04T00:51:15.117Z,1.20
2019-02-04T00:54:04.351Z,1.20
2019-02-04T00:56:53.271Z,1.30
2019-02-04T00:59:41.628Z,1.30
2019-02-04T01:02:29.612Z,1.30
2019-02-04T01:05:19.153Z,1.20
2019-02-04T01:08:08.212Z,1.20
2019-02-04T01:10:56.659Z,1.30
2019-02-04T01:13:44.567Z,1.30
2019-02-04T01:16:32.771Z,1.30
2019-02-04T01:19:20.775Z,1.30
2019-02-04T01:22:09.379Z,1.30
2019-02-04T01:24:57.829Z,1.30
2019-02-04T01:27:46.673Z,1.30
2019-02-04T01:30:34.371Z,1.30
2019-02-04T01:33:22.786Z,1.30
2019-02-04T01:36:10.964Z,1.30
2019-02-04T01:38:58.948Z,1.30
2019-02-04T01:41:47.396Z,1.30
2019-02-04T01:44:36.013Z,1.30
2019-02-04T01:47:24.051Z,1.30
2019-02-04T01:50:14.028Z,1.30
2019-02-04T01:53:02.444Z,1.30
2019-02-04T01:55:50.416Z,1.30
2019-02-04T01:58:40.366Z,1.30
2019-02-04T02:01:28.676Z,1.30
2019-02-04T02:04:17.158Z,1.40
2019-02-04T02:07:05.108Z,1.30
2019-02-04T02:09:53.242Z,1.30
2019-02-04T02:12:41.039Z,1.30
2019-02-04T02:15:29.629Z,1.30
2019-02-04T02:18:17.546Z,1.30
2019-02-04T02:21:05.348Z,1.30
2019-02-04T02:23:53.971Z,1.30
2019-02-04T02:26:42.287Z,1.30
2019-02-04T02:29:32.265Z,1.30
2019-02-04T02:32:20.614Z,1.20
2019-02-04T02:35:08.977Z,1.20
2019-02-04T02:37:57.500Z,1.30
2019-02-04T02:40:45.119Z,1.20
2019-02-04T02:43:32.644Z,1.20
2019-02-04T02:46:20.228Z,1.20
2019-02-04T02:49:08.928Z,1.20
2019-02-04T02:51:56.968Z,1.20
2019-02-04T02:54:45.412Z,1.20
2019-02-04T02:57:33.212Z,1.20
2019-02-04T03:00:22.964Z,1.20
2019-02-04T03:03:11.844Z,1.20
2019-02-04T03:06:00.248Z,1.20
2019-02-04T03:08:48.550Z,1.20
2019-02-04T03:11:36.804Z,1.20
2019-02-04T03:14:24.681Z,1.20
2019-02-04T03:17:12.369Z,1.20
2019-02-04T03:20:01.032Z,1.10
2019-02-04T03:22:49.716Z,1.10
2019-02-04T03:25:37.724Z,1.00
2019-02-04T03:28:25.976Z,0.90
2019-02-04T03:31:13.525Z,0.80
2019-02-04T03:34:01.634Z,0.90
2019-02-04T03:36:50.000Z,0.80
2019-02-04T03:39:38.539Z,0.80
2019-02-04T03:42:26.812Z,0.80
2019-02-04T03:45:15.276Z,0.90
2019-02-04T03:48:08.394Z,0.80
2019-02-04T03:50:53.613Z,0.80
2019-02-04T03:53:41.755Z,0.80
2019-02-04T03:56:30.500Z,0.70
2019-02-04T03:59:18.687Z,0.70
2019-02-04T04:02:07.207Z,0.70
2019-02-04T04:04:55.252Z,0.80
2019-02-04T04:07:43.588Z,0.80
2019-02-04T04:10:32.199Z,0.80
2019-02-04T04:13:20.608Z,0.80
2019-02-04T04:16:09.384Z,0.80
2019-02-04T04:18:57.563Z,0.70
2019-02-04T04:21:46.516Z,0.80
2019-02-04T04:24:34.702Z,0.80
2019-02-04T04:27:22.916Z,0.80
2019-02-04T04:30:14.521Z,0.80
2019-02-04T04:33:03.040Z,0.80
2019-02-04T04:35:51.356Z,0.80
2019-02-04T04:38:39.401Z,0.80
2019-02-04T04:41:27.780Z,0.80
2019-02-04T04:44:16.455Z,0.80
2019-02-04T04:47:04.376Z,0.80
2019-02-04T04:49:52.752Z,0.90
2019-02-04T04:52:40.716Z,0.90
2019-02-04T04:55:28.843Z,0.90
2019-02-04T04:58:17.018Z,0.80
2019-02-04T05:01:05.652Z,0.90
2019-02-04T05:03:53.558Z,0.90
2019-02-04T05:06:42.064Z,0.90
2019-02-04T05:09:29.820Z,0.90
2019-02-04T05:12:17.652Z,0.80
2019-02-04T05:15:06.876Z,0.70
2019-02-04T05:17:55.903Z,0.70
2019-02-04T05:20:44.244Z,0.60
2019-02-04T05:23:32.852Z,0.60
2019-02-04T05:26:21.051Z,0.60
2019-02-04T05:29:09.448Z,0.70
2019-02-04T05:31:57.959Z,0.70
2019-02-04T05:34:45.585Z,0.60
2019-02-04T05:37:34.009Z,0.70
2019-02-04T05:40:22.252Z,0.70
2019-02-04T05:43:11.036Z,0.70
2019-02-04T05:45:59.310Z,0.70
2019-02-04T05:48:49.436Z,0.70
2019-02-04T05:51:38.381Z,0.70
2019-02-04T05:54:26.332Z,0.70
2019-02-04T05:57:14.256Z,0.60
2019-02-04T06:00:03.109Z,0.60
2019-02-04T06:02:51.256Z,0.50
2019-02-04T06:05:39.725Z,0.50
2019-02-04T06:08:27.325Z,0.50
2019-02-04T06:11:15.423Z,0.40
2019-02-04T06:14:04.515Z,0.30
2019-02-04T06:16:52.959Z,0.20
2019-02-04T06:19:41.024Z,0.20
2019-02-04T06:22:29.665Z,0.20
2019-02-04T06:25:18.418Z,0.10
2019-02-04T06:28:06.787Z,0.00
2019-02-04T06:30:55.419Z,-0.10
2019-02-04T06:33:43.495Z,-0.10
2019-02-04T06:36:32.198Z,-0.10
2019-02-04T06:39:20.136Z,0.10
2019-02-04T06:42:08.461Z,0.30
2019-02-04T06:44:56.416Z,0.40
2019-02-04T06:47:44.842Z,0.40
2019-02-04T06:50:33.416Z,0.50
2019-02-04T06:53:21.806Z,0.40
2019-02-04T06:56:10.642Z,0.50
2019-02-04T06:58:58.871Z,0.70
2019-02-04T07:01:47.386Z,0.80
2019-02-04T07:04:35.968Z,0.90
2019-02-04T07:07:24.305Z,0.90
2019-02-04T07:10:15.992Z,0.90
2019-02-04T07:13:04.125Z,1.00
2019-02-04T07:15:52.091Z,1.00
2019-02-04T07:18:40.445Z,1.00
2019-02-04T07:21:28.384Z,1.00
2019-02-04T07:24:16.369Z,1.10
2019-02-04T07:27:04.652Z,1.20
2019-02-04T07:29:52.875Z,1.30
2019-02-04T07:32:41.014Z,1.30
2019-02-04T07:35:30.105Z,1.40
2019-02-04T07:38:18.141Z,1.50
2019-02-04T07:41:06.769Z,1.50
2019-02-04T07:43:54.995Z,1.60
2019-02-04T07:46:43.388Z,1.70
2019-02-04T07:49:35.148Z,1.80
2019-02-04T07:52:21.371Z,2.00
2019-02-04T07:55:09.649Z,2.90
2019-02-04T07:57:58.530Z,3.30
2019-02-04T08:00:47.383Z,3.30
2019-02-04T08:03:35.470Z,3.30
2019-02-04T08:06:23.063Z,3.00
2019-02-04T08:09:11.198Z,2.80
2019-02-04T08:11:59.559Z,2.70
2019-02-04T08:14:47.791Z,2.70
2019-02-04T08:17:35.898Z,2.70
2019-02-04T08:20:24.404Z,2.60
2019-02-04T08:23:12.499Z,2.60
2019-02-04T08:26:00.995Z,2.60
2019-02-04T08:28:49.320Z,2.70
2019-02-04T08:31:37.118Z,2.70
2019-02-04T08:34:25.273Z,2.70
2019-02-04T08:37:13.624Z,2.70
2019-02-04T08:40:01.234Z,2.80
2019-02-04T08:42:50.347Z,2.80
2019-02-04T08:45:38.673Z,3.10
2019-02-04T08:48:26.316Z,3.30
2019-02-04T08:51:14.691Z,3.60
2019-02-04T08:54:02.254Z,4.00
2019-02-04T08:56:50.421Z,4.30
2019-02-04T08:59:38.780Z,4.60
2019-02-04T09:02:27.003Z,4.70
2019-02-04T09:05:16.083Z,4.80
2019-02-04T09:08:04.079Z,5.10
2019-02-04T09:10:53.183Z,5.20
2019-02-04T09:13:41.726Z,5.20
2019-02-04T09:16:29.759Z,5.20
2019-02-04T09:19:18.406Z,5.30
2019-02-04T09:22:06.499Z,5.10
2019-02-04T09:24:54.292Z,4.90
2019-02-04T09:27:41.938Z,4.80
2019-02-04T09:30:30.645Z,4.70
2019-02-04T09:33:18.307Z,4.70
2019-02-04T09:36:06.701Z,4.70
2019-02-04T09:38:55.150Z,5.00
2019-02-04T09:41:43.611Z,5.10
2019-02-04T09:44:31.667Z,5.30
2019-02-04T09:47:20.119Z,5.50
2019-02-04T09:50:21.167Z,5.30
2019-02-04T09:53:00.232Z,5.10
2019-02-04T09:55:49.018Z,5.10
2019-02-04T09:58:37.154Z,5.20
2019-02-04T10:01:25.481Z,5.10
2019-02-04T10:04:14.063Z,5.00
2019-02-04T10:07:02.063Z,4.90
2019-02-04T10:09:49.965Z,4.90
2019-02-04T10:12:37.623Z,5.00
2019-02-04T10:15:28.208Z,5.00
2019-02-04T10:18:16.379Z,5.00
2019-02-04T10:21:04.320Z,4.90
2019-02-04T10:23:52.307Z,4.80
2019-02-04T10:26:41.155Z,4.90
2019-02-04T10:29:28.768Z,5.10
2019-02-04T10:32:17.058Z,5.20
2019-02-04T10:35:16.413Z,4.90
2019-02-04T10:37:55.095Z,5.00
2019-02-04T10:40:43.911Z,5.00
2019-02-04T10:43:32.159Z,5.20
2019-02-04T10:46:20.977Z,5.30
2019-02-04T10:49:08.859Z,5.50
2019-02-04T10:51:56.729Z,5.40
2019-02-04T10:54:44.914Z,5.40
2019-02-04T10:57:40.522Z,5.80
2019-02-04T11:00:27.744Z,5.90
2019-02-04T11:03:16.688Z,5.90
2019-02-04T11:06:06.870Z,6.00
2019-02-04T11:08:55.255Z,5.90
2019-02-04T11:11:43.922Z,6.30
2019-02-04T11:14:32.014Z,7.10
2019-02-04T11:17:20.325Z,7.70
2019-02-04T11:20:13.713Z,7.90
2019-02-04T11:23:02.103Z,8.00
2019-02-04T11:25:50.680Z,8.20
2019-02-04T11:28:39.198Z,7.80
2019-02-04T11:31:27.888Z,7.30
2019-02-04T11:34:16.363Z,7.10
2019-02-04T11:37:04.240Z,7.00
2019-02-04T11:39:52.637Z,6.90
2019-02-04T11:42:40.699Z,7.20
2019-02-04T11:45:29.399Z,6.90
2019-02-04T11:48:19.418Z,6.70
2019-02-04T11:51:09.740Z,6.90
2019-02-04T11:53:57.306Z,7.30
2019-02-04T11:56:45.954Z,7.50
2019-02-04T11:59:35.078Z,7.10
2019-02-04T12:02:34.085Z,7.40
2019-02-04T12:05:14.483Z,7.00
2019-02-04T12:08:02.719Z,7.10
2019-02-04T12:11:23.147Z,7.20
2019-02-04T12:14:11.656Z,6.70
2019-02-04T12:17:00.245Z,6.80
2019-02-04T12:19:48.976Z,6.60
2019-02-04T12:22:36.854Z,6.70
2019-02-04T12:25:25.341Z,6.60
2019-02-04T12:28:13.913Z,6.60
2019-02-04T12:31:02.537Z,6.30
2019-02-04T12:33:51.596Z,6.40
2019-02-04T12:36:39.764Z,6.60
2019-02-04T12:39:28.308Z,6.60
2019-02-04T12:42:17.123Z,6.80
2019-02-04T12:45:06.584Z,6.50
2019-02-04T12:47:55.697Z,6.50
2019-02-04T12:50:43.830Z,6.70
2019-02-04T12:53:32.741Z,7.10
2019-02-04T12:56:21.295Z,7.50
2019-02-04T12:59:09.751Z,7.10
2019-02-04T13:01:58.456Z,6.80
2019-02-04T13:04:47.035Z,6.80
2019-02-04T13:07:34.606Z,7.10
2019-02-04T13:10:23.395Z,7.20
2019-02-04T13:13:14.305Z,7.00
2019-02-04T13:16:01.928Z,6.60
2019-02-04T13:18:50.409Z,6.50
2019-02-04T13:21:45.211Z,6.30
2019-02-04T13:24:28.023Z,6.40
2019-02-04T13:27:15.587Z,6.30
2019-02-04T13:30:04.210Z,6.40
2019-02-04T13:32:52.649Z,6.50
2019-02-04T13:35:40.997Z,6.50
2019-02-04T13:38:29.215Z,6.50
2019-02-04T13:41:17.468Z,6.20
2019-02-04T13:44:07.299Z,6.30
2019-02-04T13:46:56.035Z,6.50
2019-02-04T13:49:46.275Z,6.50
2019-02-04T13:52:34.211Z,6.40
2019-02-04T13:55:27.941Z,6.40
2019-02-04T13:58:15.863Z,6.20
2019-02-04T14:01:04.128Z,6.10
2019-02-04T14:03:52.683Z,6.10
2019-02-04T14:06:40.203Z,6.00
2019-02-04T14:09:28.540Z,5.90
2019-02-04T14:12:17.002Z,5.80
2019-02-04T14:15:05.631Z,5.70
2019-02-04T14:17:54.503Z,5.70
2019-02-04T14:20:42.775Z,5.70
2019-02-04T14:23:30.732Z,5.80
2019-02-04T14:26:19.317Z,5.80
2019-02-04T14:29:07.821Z,5.60
2019-02-04T14:31:56.242Z,5.60
2019-02-04T14:34:44.854Z,5.60
2019-02-04T14:37:33.439Z,5.60
2019-02-04T14:40:21.742Z,5.60
2019-02-04T14:43:46.647Z,5.50
2019-02-04T14:46:52.015Z,5.50
2019-02-04T14:50:21.858Z,5.50
2019-02-04T14:53:42.299Z,5.50
2019-02-04T14:57:01.424Z,5.50
2019-02-04T14:59:55.619Z,5.40
2019-02-04T15:03:19.218Z,5.40
2019-02-04T15:06:32.711Z,5.40
2019-02-04T15:09:39.899Z,5.40
2019-02-04T15:12:53.142Z,5.30
2019-02-04T15:15:53.360Z,5.30
2019-02-04T15:19:16.569Z,5.30
2019-02-04T15:22:16.127Z,5.40
2019-02-04T15:25:51.503Z,5.30
2019-02-04T15:29:16.835Z,5.40
2019-02-04T15:32:23.545Z,5.30
2019-02-04T15:35:36.788Z,5.30
2019-02-04T15:38:33.670Z,5.30
2019-02-04T15:41:39.728Z,5.30
2019-02-04T15:45:11.002Z,5.20
2019-02-04T15:48:13.290Z,5.30
2019-02-04T15:51:24.467Z,5.30
2019-02-04T15:54:12.702Z,5.30
2019-02-04T15:57:02.766Z,5.30
2019-02-04T15:59:50.789Z,5.20
2019-02-04T16:02:39.188Z,5.20
2019-02-04T16:05:27.455Z,5.20
2019-02-04T16:08:15.529Z,5.20
2019-02-04T16:11:04.019Z,5.20
2019-02-04T16:13:52.314Z,5.20
2019-02-04T16:16:40.932Z,5.20
2019-02-04T16:19:29.866Z,5.20
2019-02-04T16:22:17.832Z,5.20
2019-02-04T16:25:06.384Z,5.10
2019-02-04T16:27:54.520Z,5.10
2019-02-04T16:30:43.487Z,5.10
2019-02-04T16:33:31.959Z,5.10
2019-02-04T16:36:19.959Z,5.10
2019-02-04T16:39:09.902Z,5.10
2019-02-04T16:41:58.339Z,5.10
2019-02-04T16:44:47.062Z,5.10
2019-02-04T16:47:35.600Z,5.10
2019-02-04T16:50:25.944Z,5.10
2019-02-04T16:53:14.128Z,5.00
2019-02-04T16:56:02.492Z,5.00
2019-02-04T16:58:50.174Z,5.10
2019-02-04T17:01:38.099Z,5.00
2019-02-04T17:04:26.340Z,5.00
2019-02-04T17:07:14.808Z,5.00
2019-02-04T17:10:03.340Z,5.00
2019-02-04T17:12:52.015Z,5.00
2019-02-04T17:15:39.957Z,5.00
2019-02-04T17:18:28.211Z,5.00
2019-02-04T17:21:16.579Z,5.00
2019-02-04T17:24:05.523Z,5.00
2019-02-04T17:26:53.855Z,5.00
2019-02-04T17:29:41.835Z,5.00
2019-02-04T17:32:30.335Z,5.00
2019-02-04T17:35:18.707Z,5.00
2019-02-04T17:38:07.025Z,5.00
2019-02-04T17:40:54.591Z,5.00
2019-02-04T17:43:42.642Z,5.00
2019-02-04T17:46:30.947Z,5.00
2019-02-04T17:49:18.862Z,5.00
2019-02-04T17:52:07.793Z,5.00
2019-02-04T17:54:55.862Z,4.90
2019-02-04T17:57:43.697Z,5.00
2019-02-04T18:00:36.655Z,5.00
2019-02-04T18:03:24.775Z,4.90
2019-02-04T18:06:13.331Z,4.90
2019-02-04T18:09:01.476Z,4.90
2019-02-04T18:11:49.750Z,5.00
2019-02-04T18:14:37.503Z,4.90
2019-02-04T18:17:25.646Z,4.90
2019-02-04T18:20:14.382Z,5.00
2019-02-04T18:23:02.516Z,4.90
2019-02-04T18:25:51.450Z,4.90
2019-02-04T18:28:39.539Z,4.90
2019-02-04T18:31:28.115Z,4.90
2019-02-04T18:34:17.175Z,4.90
2019-02-04T18:37:05.311Z,4.90
2019-02-04T18:39:53.451Z,4.90
2019-02-04T18:42:41.751Z,4.80
2019-02-04T18:45:31.043Z,4.80
2019-02-04T18:48:19.237Z,4.80
2019-02-04T18:51:08.149Z,4.80
2019-02-04T18:53:57.713Z,4.80
2019-02-04T18:56:46.628Z,4.80
2019-02-04T18:59:34.803Z,4.80
2019-02-04T19:02:22.653Z,4.70
2019-02-04T19:05:10.907Z,4.70
2019-02-04T19:07:59.730Z,4.80
2019-02-04T19:10:48.036Z,4.80
2019-02-04T19:13:36.946Z,4.70
2019-02-04T19:16:25.215Z,4.80
2019-02-04T19:19:13.602Z,4.70
2019-02-04T19:22:02.418Z,4.70
2019-02-04T19:24:51.157Z,4.70
2019-02-04T19:27:39.858Z,4.70
2019-02-04T19:30:31.108Z,4.70
2019-02-04T19:33:19.746Z,4.70
2019-02-04T19:36:09.588Z,4.70
2019-02-04T19:38:58.999Z,4.70
2019-02-04T19:41:47.783Z,4.70
2019-02-04T19:44:35.868Z,4.70
2019-02-04T19:47:24.263Z,4.70
2019-02-04T19:50:16.303Z,4.70
2019-02-04T19:53:05.146Z,4.70
2019-02-04T19:55:53.519Z,4.70
2019-02-04T19:58:42.155Z,4.70
2019-02-04T20:01:30.558Z,4.70
2019-02-04T20:04:18.273Z,4.70
2019-02-04T20:07:07.390Z,4.60
2019-02-04T20:09:55.441Z,4.70
2019-02-04T20:12:43.801Z,4.60
2019-02-04T20:15:31.790Z,4.70
2019-02-04T20:18:20.216Z,4.70
2019-02-04T20:21:08.247Z,4.70
2019-02-04T20:23:56.662Z,4.70
2019-02-04T20:26:44.799Z,4.70
2019-02-04T20:29:33.694Z,4.70
2019-02-04T20:32:22.404Z,4.70
2019-02-04T20:35:10.526Z,4.70
2019-02-04T20:37:59.098Z,4.80
2019-02-04T20:40:47.586Z,4.70
2019-02-04T20:43:35.814Z,4.80
2019-02-04T20:46:23.803Z,4.70
2019-02-04T20:49:11.555Z,4.80
2019-02-04T20:52:00.207Z,4.80
2019-02-04T20:54:48.027Z,4.80
2019-02-04T20:57:36.612Z,4.90
2019-02-04T21:00:26.526Z,4.90
2019-02-04T21:03:14.730Z,4.90
2019-02-04T21:06:02.999Z,4.90
2019-02-04T21:08:51.735Z,4.90
2019-02-04T21:11:39.869Z,4.90
2019-02-04T21:14:28.600Z,4.90
2019-02-04T21:17:16.803Z,4.90
2019-02-04T21:20:07.575Z,4.90
2019-02-04T21:22:56.003Z,4.90
2019-02-04T21:25:44.491Z,4.90
2019-02-04T21:28:32.731Z,4.90
2019-02-04T21:31:20.962Z,4.90
2019-02-04T21:34:09.267Z,4.90
2019-02-04T21:36:57.683Z,4.90
2019-02-04T21:39:46.392Z,4.90
2019-02-04T21:42:34.558Z,4.90
2019-02-04T21:45:23.675Z,4.90
2019-02-04T21:48:11.734Z,4.90
2019-02-04T21:51:00.539Z,4.90
2019-02-04T21:53:48.599Z,4.80
2019-02-04T21:56:37.486Z,4.80
2019-02-04T21:59:25.806Z,4.80
2019-02-04T22:02:14.487Z,4.80
2019-02-04T22:05:02.311Z,4.80
2019-02-04T22:07:50.631Z,4.80
2019-02-04T22:10:38.523Z,4.70
2019-02-04T22:13:26.987Z,4.70
2019-02-04T22:16:15.547Z,4.70
2019-02-04T22:19:03.970Z,4.80
2019-02-04T22:21:52.643Z,4.70
2019-02-04T22:24:41.030Z,4.70
2019-02-04T22:27:29.391Z,4.70
2019-02-04T22:30:22.161Z,4.70
2019-02-04T22:33:10.342Z,4.70
2019-02-04T22:35:58.960Z,4.70
2019-02-04T22:38:46.702Z,4.70
2019-02-04T22:41:34.991Z,4.70
2019-02-04T22:44:23.313Z,4.70
2019-02-04T22:47:10.886Z,4.60
2019-02-04T22:49:59.323Z,4.70
2019-02-04T22:52:48.113Z,4.70
2019-02-04T22:55:36.702Z,4.70
2019-02-04T22:58:24.927Z,4.60
2019-02-04T23:01:21.972Z,4.60
2019-02-04T23:04:10.167Z,4.60
2019-02-04T23:06:58.134Z,4.60
2019-02-04T23:09:46.707Z,4.60
2019-02-04T23:12:35.782Z,4.60
2019-02-04T23:15:23.575Z,4.60
2019-02-04T23:18:12.138Z,4.60
2019-02-04T23:21:00.412Z,4.60
2019-02-04T23:23:48.350Z,4.60
2019-02-04T23:26:36.059Z,4.50
2019-02-04T23:29:24.251Z,4.50
2019-02-04T23:32:12.840Z,4.40
2019-02-04T23:35:00.863Z,4.30
2019-02-04T23:37:49.703Z,4.30
2019-02-04T23:40:38.594Z,4.40
2019-02-04T23:43:26.697Z,4.30
2019-02-04T23:46:14.950Z,4.30
2019-02-04T23:49:03.326Z,4.20
2019-02-04T23:51:51.812Z,4.10
2019-02-04T23:54:40.174Z,4.00
2019-02-04T23:57:29.059Z,4.10
